sensor_id;sensor_type;location;lat;lon;timestamp;P1;durP1;ratioP1;P2;durP2;ratioP2
68700;SDS011;55682;51.114;5.882;2023-05-07T00:02:21;6.52;;;6.52;;
68700;SDS011;55682;51.114;5.882;2023-05-07T00:04:47;6.26;;;6.26;;
68700;SDS011;55682;51.114;5.882;2023-05-07T00:07:14;6.81;;;6.81;;
68700;SDS011;55682;51.114;5.882;2023-05-07T00:09:40;6.76;;;6.76;;
68700;SDS011;55682;51.114;5.882;2023-05-07T00:12:06;6.45;;;6.45;;
68700;SDS011;55682;51.114;5.882;2023-05-07T00:14:32;6.99;;;6.99;;
68700;SDS011;55682;51.114;5.882;2023-05-07T00:16:58;6.92;;;6.92;;
68700;SDS011;55682;51.114;5.882;2023-05-07T00:19:23;7.06;;;7.06;;
68700;SDS011;55682;51.114;5.882;2023-05-07T00:21:49;7.18;;;7.18;;
68700;SDS011;55682;51.114;5.882;2023-05-07T00:24:15;7.15;;;7.15;;
68700;SDS011;55682;51.114;5.882;2023-05-07T00:26:40;7.03;;;7.03;;
68700;SDS011;55682;51.114;5.882;2023-05-07T00:29:06;7.19;;;7.19;;
68700;SDS011;55682;51.114;5.882;2023-05-07T00:31:32;7.17;;;7.17;;
68700;SDS011;55682;51.114;5.882;2023-05-07T00:33:58;7.09;;;7.09;;
68700;SDS011;55682;51.114;5.882;2023-05-07T00:36:23;7.12;;;7.12;;
68700;SDS011;55682;51.114;5.882;2023-05-07T00:38:49;7.04;;;7.04;;
68700;SDS011;55682;51.114;5.882;2023-05-07T00:41:15;7.24;;;7.24;;
68700;SDS011;55682;51.114;5.882;2023-05-07T00:43:40;7.21;;;7.21;;
68700;SDS011;55682;51.114;5.882;2023-05-07T00:46:06;7.04;;;7.04;;
68700;SDS011;55682;51.114;5.882;2023-05-07T00:48:31;7.47;;;7.47;;
68700;SDS011;55682;51.114;5.882;2023-05-07T00:50:57;7.06;;;7.06;;
68700;SDS011;55682;51.114;5.882;2023-05-07T00:53:23;7.08;;;7.08;;
68700;SDS011;55682;51.114;5.882;2023-05-07T00:55:49;7.17;;;7.17;;
68700;SDS011;55682;51.114;5.882;2023-05-07T00:58:16;7.20;;;7.20;;
68700;SDS011;55682;51.114;5.882;2023-05-07T01:00:42;7.23;;;7.23;;
68700;SDS011;55682;51.114;5.882;2023-05-07T01:03:07;7.21;;;7.21;;
68700;SDS011;55682;51.114;5.882;2023-05-07T01:05:33;6.78;;;6.78;;
68700;SDS011;55682;51.114;5.882;2023-05-07T01:08:00;7.07;;;7.07;;
68700;SDS011;55682;51.114;5.882;2023-05-07T01:10:26;7.45;;;7.45;;
68700;SDS011;55682;51.114;5.882;2023-05-07T01:12:55;8.16;;;8.16;;
68700;SDS011;55682;51.114;5.882;2023-05-07T01:15:23;7.54;;;7.54;;
68700;SDS011;55682;51.114;5.882;2023-05-07T01:17:49;8.07;;;8.07;;
68700;SDS011;55682;51.114;5.882;2023-05-07T01:20:25;8.47;;;8.47;;
68700;SDS011;55682;51.114;5.882;2023-05-07T01:22:54;8.34;;;8.34;;
68700;SDS011;55682;51.114;5.882;2023-05-07T01:25:21;8.40;;;8.40;;
68700;SDS011;55682;51.114;5.882;2023-05-07T01:27:51;8.97;;;8.97;;
68700;SDS011;55682;51.114;5.882;2023-05-07T01:30:19;9.04;;;9.04;;
68700;SDS011;55682;51.114;5.882;2023-05-07T01:32:51;9.34;;;9.34;;
68700;SDS011;55682;51.114;5.882;2023-05-07T01:35:24;8.92;;;8.92;;
68700;SDS011;55682;51.114;5.882;2023-05-07T01:37:55;9.40;;;9.40;;
68700;SDS011;55682;51.114;5.882;2023-05-07T01:40:22;9.07;;;9.07;;
68700;SDS011;55682;51.114;5.882;2023-05-07T01:42:51;9.43;;;9.43;;
68700;SDS011;55682;51.114;5.882;2023-05-07T01:45:18;9.40;;;9.40;;
68700;SDS011;55682;51.114;5.882;2023-05-07T01:47:43;9.75;;;9.75;;
68700;SDS011;55682;51.114;5.882;2023-05-07T01:50:10;9.77;;;9.77;;
68700;SDS011;55682;51.114;5.882;2023-05-07T01:52:37;9.74;;;9.74;;
68700;SDS011;55682;51.114;5.882;2023-05-07T01:55:04;10.12;;;10.12;;
68700;SDS011;55682;51.114;5.882;2023-05-07T01:57:31;10.02;;;10.02;;
68700;SDS011;55682;51.114;5.882;2023-05-07T01:59:57;10.38;;;10.38;;
68700;SDS011;55682;51.114;5.882;2023-05-07T02:02:22;10.08;;;10.08;;
68700;SDS011;55682;51.114;5.882;2023-05-07T02:04:48;11.01;;;11.01;;
68700;SDS011;55682;51.114;5.882;2023-05-07T02:07:15;10.83;;;10.83;;
68700;SDS011;55682;51.114;5.882;2023-05-07T02:09:41;11.16;;;11.16;;
68700;SDS011;55682;51.114;5.882;2023-05-07T02:12:07;11.48;;;11.48;;
68700;SDS011;55682;51.114;5.882;2023-05-07T02:14:32;11.28;;;11.28;;
68700;SDS011;55682;51.114;5.882;2023-05-07T02:16:58;11.89;;;11.89;;
68700;SDS011;55682;51.114;5.882;2023-05-07T02:19:24;12.11;;;12.11;;
68700;SDS011;55682;51.114;5.882;2023-05-07T02:21:50;11.83;;;11.83;;
68700;SDS011;55682;51.114;5.882;2023-05-07T02:24:16;11.59;;;11.59;;
68700;SDS011;55682;51.114;5.882;2023-05-07T02:26:42;12.03;;;12.03;;
68700;SDS011;55682;51.114;5.882;2023-05-07T02:29:07;12.43;;;12.43;;
68700;SDS011;55682;51.114;5.882;2023-05-07T02:31:33;12.48;;;12.48;;
68700;SDS011;55682;51.114;5.882;2023-05-07T02:34:00;12.45;;;12.45;;
68700;SDS011;55682;51.114;5.882;2023-05-07T02:36:26;12.19;;;12.19;;
68700;SDS011;55682;51.114;5.882;2023-05-07T02:38:58;12.43;;;12.43;;
68700;SDS011;55682;51.114;5.882;2023-05-07T02:41:24;12.78;;;12.78;;
68700;SDS011;55682;51.114;5.882;2023-05-07T02:43:50;12.52;;;12.52;;
68700;SDS011;55682;51.114;5.882;2023-05-07T02:46:16;12.30;;;12.30;;
68700;SDS011;55682;51.114;5.882;2023-05-07T02:48:45;11.96;;;11.96;;
68700;SDS011;55682;51.114;5.882;2023-05-07T02:51:11;12.33;;;12.33;;
68700;SDS011;55682;51.114;5.882;2023-05-07T02:53:39;12.29;;;12.29;;
68700;SDS011;55682;51.114;5.882;2023-05-07T02:56:04;12.26;;;12.26;;
68700;SDS011;55682;51.114;5.882;2023-05-07T02:58:31;12.56;;;12.56;;
68700;SDS011;55682;51.114;5.882;2023-05-07T03:00:58;12.43;;;12.43;;
68700;SDS011;55682;51.114;5.882;2023-05-07T03:03:47;12.68;;;12.68;;
68700;SDS011;55682;51.114;5.882;2023-05-07T03:06:12;12.61;;;12.61;;
68700;SDS011;55682;51.114;5.882;2023-05-07T03:08:38;12.47;;;12.47;;
68700;SDS011;55682;51.114;5.882;2023-05-07T03:11:03;12.59;;;12.59;;
68700;SDS011;55682;51.114;5.882;2023-05-07T03:13:29;12.29;;;12.29;;
68700;SDS011;55682;51.114;5.882;2023-05-07T03:15:55;13.03;;;13.03;;
68700;SDS011;55682;51.114;5.882;2023-05-07T03:18:21;12.62;;;12.62;;
68700;SDS011;55682;51.114;5.882;2023-05-07T03:20:48;12.98;;;12.98;;
68700;SDS011;55682;51.114;5.882;2023-05-07T03:23:14;12.65;;;12.65;;
68700;SDS011;55682;51.114;5.882;2023-05-07T03:25:40;12.92;;;12.92;;
68700;SDS011;55682;51.114;5.882;2023-05-07T03:28:06;13.08;;;13.08;;
68700;SDS011;55682;51.114;5.882;2023-05-07T03:30:38;13.14;;;13.14;;
68700;SDS011;55682;51.114;5.882;2023-05-07T03:33:04;13.46;;;13.46;;
68700;SDS011;55682;51.114;5.882;2023-05-07T03:35:30;13.67;;;13.67;;
68700;SDS011;55682;51.114;5.882;2023-05-07T03:37:55;13.25;;;13.25;;
68700;SDS011;55682;51.114;5.882;2023-05-07T03:40:21;13.16;;;13.12;;
68700;SDS011;55682;51.114;5.882;2023-05-07T03:42:51;12.88;;;12.88;;
68700;SDS011;55682;51.114;5.882;2023-05-07T03:45:18;13.53;;;13.53;;
68700;SDS011;55682;51.114;5.882;2023-05-07T03:47:50;13.53;;;13.53;;
68700;SDS011;55682;51.114;5.882;2023-05-07T03:50:19;12.93;;;12.93;;
68700;SDS011;55682;51.114;5.882;2023-05-07T03:52:44;13.04;;;13.04;;
68700;SDS011;55682;51.114;5.882;2023-05-07T03:55:10;12.96;;;12.96;;
68700;SDS011;55682;51.114;5.882;2023-05-07T03:57:39;13.31;;;13.31;;
68700;SDS011;55682;51.114;5.882;2023-05-07T04:00:05;13.29;;;13.29;;
68700;SDS011;55682;51.114;5.882;2023-05-07T04:02:45;12.95;;;12.95;;
68700;SDS011;55682;51.114;5.882;2023-05-07T04:05:11;13.01;;;13.01;;
68700;SDS011;55682;51.114;5.882;2023-05-07T04:07:39;13.06;;;13.06;;
68700;SDS011;55682;51.114;5.882;2023-05-07T04:10:06;12.96;;;12.96;;
68700;SDS011;55682;51.114;5.882;2023-05-07T04:12:32;12.97;;;12.97;;
68700;SDS011;55682;51.114;5.882;2023-05-07T04:14:58;13.09;;;13.09;;
68700;SDS011;55682;51.114;5.882;2023-05-07T04:17:24;12.90;;;12.90;;
68700;SDS011;55682;51.114;5.882;2023-05-07T04:19:50;12.83;;;12.83;;
68700;SDS011;55682;51.114;5.882;2023-05-07T04:22:17;13.04;;;13.04;;
68700;SDS011;55682;51.114;5.882;2023-05-07T04:24:42;13.01;;;13.01;;
68700;SDS011;55682;51.114;5.882;2023-05-07T04:27:08;12.74;;;12.74;;
68700;SDS011;55682;51.114;5.882;2023-05-07T04:29:34;12.45;;;12.45;;
68700;SDS011;55682;51.114;5.882;2023-05-07T04:32:01;12.44;;;12.44;;
68700;SDS011;55682;51.114;5.882;2023-05-07T04:34:27;12.58;;;12.50;;
68700;SDS011;55682;51.114;5.882;2023-05-07T04:36:53;12.82;;;12.82;;
68700;SDS011;55682;51.114;5.882;2023-05-07T04:39:19;12.36;;;12.36;;
68700;SDS011;55682;51.114;5.882;2023-05-07T04:41:46;12.82;;;12.82;;
68700;SDS011;55682;51.114;5.882;2023-05-07T04:44:12;12.16;;;12.16;;
68700;SDS011;55682;51.114;5.882;2023-05-07T04:46:38;12.38;;;12.38;;
68700;SDS011;55682;51.114;5.882;2023-05-07T04:49:04;12.05;;;12.05;;
68700;SDS011;55682;51.114;5.882;2023-05-07T04:51:30;12.34;;;12.34;;
68700;SDS011;55682;51.114;5.882;2023-05-07T04:53:58;12.46;;;12.46;;
68700;SDS011;55682;51.114;5.882;2023-05-07T04:56:24;11.95;;;11.95;;
68700;SDS011;55682;51.114;5.882;2023-05-07T04:58:53;11.52;;;11.52;;
68700;SDS011;55682;51.114;5.882;2023-05-07T05:01:20;10.73;;;10.73;;
68700;SDS011;55682;51.114;5.882;2023-05-07T05:03:47;11.72;;;11.72;;
68700;SDS011;55682;51.114;5.882;2023-05-07T05:06:13;11.58;;;11.58;;
68700;SDS011;55682;51.114;5.882;2023-05-07T05:08:38;11.38;;;11.38;;
68700;SDS011;55682;51.114;5.882;2023-05-07T05:11:05;11.23;;;11.23;;
68700;SDS011;55682;51.114;5.882;2023-05-07T05:13:33;10.93;;;10.93;;
68700;SDS011;55682;51.114;5.882;2023-05-07T05:16:01;10.89;;;10.89;;
68700;SDS011;55682;51.114;5.882;2023-05-07T05:18:28;10.53;;;10.53;;
68700;SDS011;55682;51.114;5.882;2023-05-07T05:20:54;10.15;;;10.15;;
68700;SDS011;55682;51.114;5.882;2023-05-07T05:23:20;10.19;;;10.19;;
68700;SDS011;55682;51.114;5.882;2023-05-07T05:25:46;10.16;;;10.16;;
68700;SDS011;55682;51.114;5.882;2023-05-07T05:28:13;10.03;;;10.03;;
68700;SDS011;55682;51.114;5.882;2023-05-07T05:30:39;10.24;;;10.24;;
68700;SDS011;55682;51.114;5.882;2023-05-07T05:33:04;9.62;;;9.62;;
68700;SDS011;55682;51.114;5.882;2023-05-07T05:35:30;9.47;;;9.47;;
68700;SDS011;55682;51.114;5.882;2023-05-07T05:37:57;9.69;;;9.69;;
68700;SDS011;55682;51.114;5.882;2023-05-07T05:40:23;9.32;;;9.32;;
68700;SDS011;55682;51.114;5.882;2023-05-07T05:42:49;8.97;;;8.97;;
68700;SDS011;55682;51.114;5.882;2023-05-07T05:45:15;9.32;;;9.32;;
68700;SDS011;55682;51.114;5.882;2023-05-07T05:47:42;9.22;;;9.22;;
68700;SDS011;55682;51.114;5.882;2023-05-07T05:50:08;9.49;;;9.49;;
68700;SDS011;55682;51.114;5.882;2023-05-07T05:52:34;8.94;;;8.94;;
68700;SDS011;55682;51.114;5.882;2023-05-07T05:55:00;8.57;;;8.57;;
68700;SDS011;55682;51.114;5.882;2023-05-07T05:57:26;8.28;;;8.28;;
68700;SDS011;55682;51.114;5.882;2023-05-07T05:59:52;8.49;;;8.49;;
68700;SDS011;55682;51.114;5.882;2023-05-07T06:02:17;8.83;;;8.83;;
68700;SDS011;55682;51.114;5.882;2023-05-07T06:04:43;8.53;;;8.53;;
68700;SDS011;55682;51.114;5.882;2023-05-07T06:07:11;8.51;;;8.51;;
68700;SDS011;55682;51.114;5.882;2023-05-07T06:09:36;8.39;;;8.39;;
68700;SDS011;55682;51.114;5.882;2023-05-07T06:12:02;8.33;;;8.33;;
68700;SDS011;55682;51.114;5.882;2023-05-07T06:14:29;7.79;;;7.79;;
68700;SDS011;55682;51.114;5.882;2023-05-07T06:16:55;7.58;;;7.58;;
68700;SDS011;55682;51.114;5.882;2023-05-07T06:19:21;7.77;;;7.77;;
68700;SDS011;55682;51.114;5.882;2023-05-07T06:21:49;8.17;;;8.17;;
68700;SDS011;55682;51.114;5.882;2023-05-07T06:24:15;7.93;;;7.93;;
68700;SDS011;55682;51.114;5.882;2023-05-07T06:26:41;7.89;;;7.89;;
68700;SDS011;55682;51.114;5.882;2023-05-07T06:29:07;8.41;;;8.41;;
68700;SDS011;55682;51.114;5.882;2023-05-07T06:31:33;8.28;;;8.28;;
68700;SDS011;55682;51.114;5.882;2023-05-07T06:34:02;8.22;;;8.22;;
68700;SDS011;55682;51.114;5.882;2023-05-07T06:36:33;7.66;;;7.66;;
68700;SDS011;55682;51.114;5.882;2023-05-07T06:39:05;7.65;;;7.65;;
68700;SDS011;55682;51.114;5.882;2023-05-07T06:41:31;8.01;;;8.01;;
68700;SDS011;55682;51.114;5.882;2023-05-07T06:44:03;7.67;;;7.67;;
68700;SDS011;55682;51.114;5.882;2023-05-07T06:46:36;7.64;;;7.64;;
68700;SDS011;55682;51.114;5.882;2023-05-07T06:49:03;7.25;;;7.25;;
68700;SDS011;55682;51.114;5.882;2023-05-07T06:51:29;7.18;;;7.18;;
68700;SDS011;55682;51.114;5.882;2023-05-07T06:53:58;6.82;;;6.82;;
68700;SDS011;55682;51.114;5.882;2023-05-07T06:56:24;6.33;;;6.33;;
68700;SDS011;55682;51.114;5.882;2023-05-07T06:58:50;6.29;;;6.29;;
68700;SDS011;55682;51.114;5.882;2023-05-07T07:01:17;6.37;;;6.37;;
68700;SDS011;55682;51.114;5.882;2023-05-07T07:03:43;6.06;;;6.06;;
68700;SDS011;55682;51.114;5.882;2023-05-07T07:06:09;6.15;;;6.15;;
68700;SDS011;55682;51.114;5.882;2023-05-07T07:08:34;5.81;;;5.81;;
68700;SDS011;55682;51.114;5.882;2023-05-07T07:11:01;5.89;;;5.89;;
68700;SDS011;55682;51.114;5.882;2023-05-07T07:13:26;6.21;;;6.21;;
68700;SDS011;55682;51.114;5.882;2023-05-07T07:15:52;5.83;;;5.83;;
68700;SDS011;55682;51.114;5.882;2023-05-07T07:18:19;5.63;;;5.63;;
68700;SDS011;55682;51.114;5.882;2023-05-07T07:20:47;5.94;;;5.94;;
68700;SDS011;55682;51.114;5.882;2023-05-07T07:23:13;5.60;;;5.60;;
68700;SDS011;55682;51.114;5.882;2023-05-07T07:25:40;5.75;;;5.75;;
68700;SDS011;55682;51.114;5.882;2023-05-07T07:28:06;6.00;;;6.00;;
68700;SDS011;55682;51.114;5.882;2023-05-07T07:30:32;5.87;;;5.87;;
68700;SDS011;55682;51.114;5.882;2023-05-07T07:32:58;5.73;;;5.73;;
68700;SDS011;55682;51.114;5.882;2023-05-07T07:35:29;5.78;;;5.78;;
68700;SDS011;55682;51.114;5.882;2023-05-07T07:37:55;5.54;;;5.54;;
68700;SDS011;55682;51.114;5.882;2023-05-07T07:40:21;5.34;;;5.34;;
68700;SDS011;55682;51.114;5.882;2023-05-07T07:42:48;5.18;;;5.18;;
68700;SDS011;55682;51.114;5.882;2023-05-07T07:45:13;5.07;;;5.07;;
68700;SDS011;55682;51.114;5.882;2023-05-07T07:47:44;5.04;;;5.04;;
68700;SDS011;55682;51.114;5.882;2023-05-07T07:50:10;4.66;;;4.66;;
68700;SDS011;55682;51.114;5.882;2023-05-07T07:52:36;4.49;;;4.49;;
68700;SDS011;55682;51.114;5.882;2023-05-07T07:55:02;3.92;;;3.92;;
68700;SDS011;55682;51.114;5.882;2023-05-07T07:57:28;4.05;;;4.05;;
68700;SDS011;55682;51.114;5.882;2023-05-07T07:59:54;4.10;;;4.10;;
68700;SDS011;55682;51.114;5.882;2023-05-07T08:02:20;3.90;;;3.90;;
68700;SDS011;55682;51.114;5.882;2023-05-07T08:04:48;3.95;;;3.95;;
68700;SDS011;55682;51.114;5.882;2023-05-07T08:07:14;4.11;;;4.11;;
68700;SDS011;55682;51.114;5.882;2023-05-07T08:09:43;4.05;;;4.05;;
68700;SDS011;55682;51.114;5.882;2023-05-07T08:12:09;3.90;;;3.90;;
68700;SDS011;55682;51.114;5.882;2023-05-07T08:14:35;3.69;;;3.69;;
68700;SDS011;55682;51.114;5.882;2023-05-07T08:17:03;3.50;;;3.50;;
68700;SDS011;55682;51.114;5.882;2023-05-07T08:19:29;3.25;;;3.25;;
68700;SDS011;55682;51.114;5.882;2023-05-07T08:21:55;3.37;;;3.37;;
68700;SDS011;55682;51.114;5.882;2023-05-07T08:24:21;3.23;;;3.23;;
68700;SDS011;55682;51.114;5.882;2023-05-07T08:26:48;3.15;;;3.15;;
68700;SDS011;55682;51.114;5.882;2023-05-07T08:29:15;3.36;;;3.36;;
68700;SDS011;55682;51.114;5.882;2023-05-07T08:31:41;3.21;;;3.21;;
68700;SDS011;55682;51.114;5.882;2023-05-07T08:34:06;3.04;;;3.04;;
68700;SDS011;55682;51.114;5.882;2023-05-07T08:36:34;3.04;;;3.04;;
68700;SDS011;55682;51.114;5.882;2023-05-07T08:39:00;3.29;;;3.29;;
68700;SDS011;55682;51.114;5.882;2023-05-07T08:41:26;3.02;;;3.02;;
68700;SDS011;55682;51.114;5.882;2023-05-07T08:43:52;2.66;;;2.66;;
68700;SDS011;55682;51.114;5.882;2023-05-07T08:46:23;2.82;;;2.82;;
68700;SDS011;55682;51.114;5.882;2023-05-07T08:48:54;3.09;;;3.09;;
68700;SDS011;55682;51.114;5.882;2023-05-07T08:51:20;3.24;;;3.24;;
68700;SDS011;55682;51.114;5.882;2023-05-07T08:53:47;3.01;;;3.01;;
68700;SDS011;55682;51.114;5.882;2023-05-07T08:56:20;3.17;;;3.17;;
68700;SDS011;55682;51.114;5.882;2023-05-07T08:58:47;3.30;;;3.30;;
68700;SDS011;55682;51.114;5.882;2023-05-07T09:01:14;3.53;;;3.53;;
68700;SDS011;55682;51.114;5.882;2023-05-07T09:03:46;2.84;;;2.84;;
68700;SDS011;55682;51.114;5.882;2023-05-07T09:06:14;3.12;;;3.12;;
68700;SDS011;55682;51.114;5.882;2023-05-07T09:08:41;2.82;;;2.82;;
68700;SDS011;55682;51.114;5.882;2023-05-07T09:11:16;3.01;;;3.01;;
68700;SDS011;55682;51.114;5.882;2023-05-07T09:13:42;3.28;;;3.28;;
68700;SDS011;55682;51.114;5.882;2023-05-07T09:16:11;3.00;;;3.00;;
68700;SDS011;55682;51.114;5.882;2023-05-07T09:18:42;3.19;;;3.19;;
68700;SDS011;55682;51.114;5.882;2023-05-07T09:21:10;3.54;;;3.54;;
68700;SDS011;55682;51.114;5.882;2023-05-07T09:23:39;3.65;;;3.65;;
68700;SDS011;55682;51.114;5.882;2023-05-07T09:26:06;3.64;;;3.64;;
68700;SDS011;55682;51.114;5.882;2023-05-07T09:28:40;3.83;;;3.83;;
68700;SDS011;55682;51.114;5.882;2023-05-07T09:31:10;3.35;;;3.35;;
68700;SDS011;55682;51.114;5.882;2023-05-07T09:33:37;3.18;;;3.18;;
68700;SDS011;55682;51.114;5.882;2023-05-07T09:36:04;3.32;;;3.32;;
68700;SDS011;55682;51.114;5.882;2023-05-07T09:38:33;2.93;;;2.93;;
68700;SDS011;55682;51.114;5.882;2023-05-07T09:41:07;3.26;;;3.26;;
68700;SDS011;55682;51.114;5.882;2023-05-07T09:43:42;3.20;;;3.20;;
68700;SDS011;55682;51.114;5.882;2023-05-07T09:46:13;3.49;;;3.49;;
68700;SDS011;55682;51.114;5.882;2023-05-07T09:48:45;3.33;;;3.33;;
68700;SDS011;55682;51.114;5.882;2023-05-07T09:54:00;3.29;;;3.29;;
68700;SDS011;55682;51.114;5.882;2023-05-07T09:56:30;3.65;;;3.65;;
68700;SDS011;55682;51.114;5.882;2023-05-07T09:58:57;3.69;;;3.69;;
68700;SDS011;55682;51.114;5.882;2023-05-07T10:01:26;3.58;;;3.58;;
68700;SDS011;55682;51.114;5.882;2023-05-07T10:03:53;3.37;;;3.37;;
68700;SDS011;55682;51.114;5.882;2023-05-07T10:06:20;3.40;;;3.40;;
68700;SDS011;55682;51.114;5.882;2023-05-07T10:08:46;3.24;;;3.24;;
68700;SDS011;55682;51.114;5.882;2023-05-07T10:11:13;3.05;;;3.05;;
68700;SDS011;55682;51.114;5.882;2023-05-07T10:13:41;2.81;;;2.81;;
68700;SDS011;55682;51.114;5.882;2023-05-07T10:16:09;2.22;;;2.22;;
68700;SDS011;55682;51.114;5.882;2023-05-07T10:18:41;2.54;;;2.54;;
68700;SDS011;55682;51.114;5.882;2023-05-07T10:21:16;2.38;;;2.38;;
68700;SDS011;55682;51.114;5.882;2023-05-07T10:23:49;2.09;;;2.09;;
68700;SDS011;55682;51.114;5.882;2023-05-07T10:26:17;1.53;;;1.53;;
68700;SDS011;55682;51.114;5.882;2023-05-07T10:28:49;1.62;;;1.62;;
68700;SDS011;55682;51.114;5.882;2023-05-07T10:33:53;2.28;;;2.28;;
68700;SDS011;55682;51.114;5.882;2023-05-07T10:36:22;2.21;;;2.21;;
68700;SDS011;55682;51.114;5.882;2023-05-07T10:38:51;2.51;;;2.51;;
68700;SDS011;55682;51.114;5.882;2023-05-07T10:41:17;2.55;;;2.55;;
68700;SDS011;55682;51.114;5.882;2023-05-07T10:43:44;2.66;;;2.66;;
68700;SDS011;55682;51.114;5.882;2023-05-07T10:46:19;2.82;;;2.82;;
68700;SDS011;55682;51.114;5.882;2023-05-07T10:51:41;2.34;;;2.34;;
68700;SDS011;55682;51.114;5.882;2023-05-07T10:54:20;1.83;;;1.83;;
68700;SDS011;55682;51.114;5.882;2023-05-07T10:56:59;1.47;;;1.47;;
68700;SDS011;55682;51.114;5.882;2023-05-07T10:59:58;1.27;;;1.27;;
68700;SDS011;55682;51.114;5.882;2023-05-07T11:05:29;1.65;;;1.65;;
68700;SDS011;55682;51.114;5.882;2023-05-07T11:08:15;1.88;;;1.88;;
68700;SDS011;55682;51.114;5.882;2023-05-07T11:10:53;1.74;;;1.74;;
68700;SDS011;55682;51.114;5.882;2023-05-07T11:16:16;2.35;;;2.35;;
68700;SDS011;55682;51.114;5.882;2023-05-07T11:18:50;2.44;;;2.44;;
68700;SDS011;55682;51.114;5.882;2023-05-07T11:21:39;2.18;;;2.18;;
68700;SDS011;55682;51.114;5.882;2023-05-07T11:24:13;2.40;;;2.40;;
68700;SDS011;55682;51.114;5.882;2023-05-07T11:26:48;2.74;;;2.74;;
68700;SDS011;55682;51.114;5.882;2023-05-07T11:29:19;2.55;;;2.55;;
68700;SDS011;55682;51.114;5.882;2023-05-07T11:31:48;2.71;;;2.71;;
68700;SDS011;55682;51.114;5.882;2023-05-07T11:34:22;2.67;;;2.67;;
68700;SDS011;55682;51.114;5.882;2023-05-07T11:36:51;2.56;;;2.56;;
68700;SDS011;55682;51.114;5.882;2023-05-07T11:39:28;2.82;;;2.82;;
68700;SDS011;55682;51.114;5.882;2023-05-07T11:42:01;2.88;;;2.88;;
68700;SDS011;55682;51.114;5.882;2023-05-07T11:44:45;3.17;;;3.17;;
68700;SDS011;55682;51.114;5.882;2023-05-07T11:47:17;3.36;;;3.36;;
68700;SDS011;55682;51.114;5.882;2023-05-07T11:49:46;3.18;;;3.18;;
68700;SDS011;55682;51.114;5.882;2023-05-07T11:52:13;3.73;;;3.73;;
68700;SDS011;55682;51.114;5.882;2023-05-07T11:54:39;3.58;;;3.58;;
68700;SDS011;55682;51.114;5.882;2023-05-07T11:57:05;3.39;;;3.39;;
68700;SDS011;55682;51.114;5.882;2023-05-07T11:59:38;3.31;;;3.31;;
68700;SDS011;55682;51.114;5.882;2023-05-07T12:02:05;3.17;;;3.17;;
68700;SDS011;55682;51.114;5.882;2023-05-07T12:04:34;3.02;;;3.02;;
68700;SDS011;55682;51.114;5.882;2023-05-07T12:07:00;3.02;;;3.02;;
68700;SDS011;55682;51.114;5.882;2023-05-07T12:09:26;3.02;;;3.02;;
68700;SDS011;55682;51.114;5.882;2023-05-07T12:11:52;2.75;;;2.75;;
68700;SDS011;55682;51.114;5.882;2023-05-07T12:14:18;2.44;;;2.44;;
68700;SDS011;55682;51.114;5.882;2023-05-07T12:16:44;2.60;;;2.60;;
68700;SDS011;55682;51.114;5.882;2023-05-07T12:19:10;3.00;;;3.00;;
68700;SDS011;55682;51.114;5.882;2023-05-07T12:21:40;3.26;;;3.26;;
68700;SDS011;55682;51.114;5.882;2023-05-07T12:24:06;3.35;;;3.35;;
68700;SDS011;55682;51.114;5.882;2023-05-07T12:26:36;3.46;;;3.46;;
68700;SDS011;55682;51.114;5.882;2023-05-07T12:29:03;3.82;;;3.82;;
68700;SDS011;55682;51.114;5.882;2023-05-07T12:31:29;4.19;;;4.19;;
68700;SDS011;55682;51.114;5.882;2023-05-07T12:33:55;4.08;;;4.08;;
68700;SDS011;55682;51.114;5.882;2023-05-07T12:36:21;4.06;;;4.06;;
68700;SDS011;55682;51.114;5.882;2023-05-07T12:38:48;3.97;;;3.97;;
68700;SDS011;55682;51.114;5.882;2023-05-07T12:41:15;4.25;;;4.25;;
68700;SDS011;55682;51.114;5.882;2023-05-07T12:43:43;3.84;;;3.84;;
68700;SDS011;55682;51.114;5.882;2023-05-07T12:46:10;3.66;;;3.66;;
68700;SDS011;55682;51.114;5.882;2023-05-07T12:48:36;3.35;;;3.35;;
68700;SDS011;55682;51.114;5.882;2023-05-07T12:51:02;3.29;;;3.29;;
68700;SDS011;55682;51.114;5.882;2023-05-07T12:53:31;3.11;;;3.11;;
68700;SDS011;55682;51.114;5.882;2023-05-07T12:55:57;2.89;;;2.89;;
68700;SDS011;55682;51.114;5.882;2023-05-07T12:58:28;3.14;;;3.14;;
68700;SDS011;55682;51.114;5.882;2023-05-07T13:00:56;2.99;;;2.99;;
68700;SDS011;55682;51.114;5.882;2023-05-07T13:03:26;3.00;;;3.00;;
68700;SDS011;55682;51.114;5.882;2023-05-07T13:06:01;3.19;;;3.19;;
68700;SDS011;55682;51.114;5.882;2023-05-07T13:08:32;2.96;;;2.96;;
68700;SDS011;55682;51.114;5.882;2023-05-07T13:11:00;2.12;;;2.12;;
68700;SDS011;55682;51.114;5.882;2023-05-07T13:13:30;1.89;;;1.89;;
68700;SDS011;55682;51.114;5.882;2023-05-07T13:15:56;1.81;;;1.81;;
68700;SDS011;55682;51.114;5.882;2023-05-07T13:18:22;2.03;;;2.03;;
68700;SDS011;55682;51.114;5.882;2023-05-07T13:20:49;2.01;;;2.01;;
68700;SDS011;55682;51.114;5.882;2023-05-07T13:23:15;1.80;;;1.80;;
68700;SDS011;55682;51.114;5.882;2023-05-07T13:25:40;1.83;;;1.83;;
68700;SDS011;55682;51.114;5.882;2023-05-07T13:28:06;1.85;;;1.85;;
68700;SDS011;55682;51.114;5.882;2023-05-07T13:30:31;1.86;;;1.86;;
68700;SDS011;55682;51.114;5.882;2023-05-07T13:32:57;1.85;;;1.85;;
68700;SDS011;55682;51.114;5.882;2023-05-07T13:35:23;1.99;;;1.99;;
68700;SDS011;55682;51.114;5.882;2023-05-07T13:37:48;2.00;;;2.00;;
68700;SDS011;55682;51.114;5.882;2023-05-07T13:40:14;2.08;;;2.08;;
68700;SDS011;55682;51.114;5.882;2023-05-07T13:42:40;2.07;;;2.07;;
68700;SDS011;55682;51.114;5.882;2023-05-07T13:45:06;2.08;;;2.08;;
68700;SDS011;55682;51.114;5.882;2023-05-07T13:47:33;2.10;;;2.10;;
68700;SDS011;55682;51.114;5.882;2023-05-07T13:49:59;2.03;;;2.03;;
68700;SDS011;55682;51.114;5.882;2023-05-07T13:52:25;1.90;;;1.90;;
68700;SDS011;55682;51.114;5.882;2023-05-07T13:54:51;1.78;;;1.78;;
68700;SDS011;55682;51.114;5.882;2023-05-07T13:57:17;1.76;;;1.76;;
68700;SDS011;55682;51.114;5.882;2023-05-07T13:59:43;1.85;;;1.85;;
68700;SDS011;55682;51.114;5.882;2023-05-07T14:02:09;1.70;;;1.70;;
68700;SDS011;55682;51.114;5.882;2023-05-07T14:04:35;1.73;;;1.73;;
68700;SDS011;55682;51.114;5.882;2023-05-07T14:07:00;1.75;;;1.75;;
68700;SDS011;55682;51.114;5.882;2023-05-07T14:09:26;1.71;;;1.71;;
68700;SDS011;55682;51.114;5.882;2023-05-07T14:11:51;1.65;;;1.65;;
68700;SDS011;55682;51.114;5.882;2023-05-07T14:14:18;1.68;;;1.68;;
68700;SDS011;55682;51.114;5.882;2023-05-07T14:16:44;1.66;;;1.66;;
68700;SDS011;55682;51.114;5.882;2023-05-07T14:19:10;1.42;;;1.42;;
68700;SDS011;55682;51.114;5.882;2023-05-07T14:21:39;1.30;;;1.30;;
68700;SDS011;55682;51.114;5.882;2023-05-07T14:24:06;1.33;;;1.33;;
68700;SDS011;55682;51.114;5.882;2023-05-07T14:26:33;1.42;;;1.42;;
68700;SDS011;55682;51.114;5.882;2023-05-07T14:28:58;1.53;;;1.53;;
68700;SDS011;55682;51.114;5.882;2023-05-07T14:31:24;1.38;;;1.38;;
68700;SDS011;55682;51.114;5.882;2023-05-07T14:33:50;1.50;;;1.50;;
68700;SDS011;55682;51.114;5.882;2023-05-07T14:36:16;1.81;;;1.81;;
68700;SDS011;55682;51.114;5.882;2023-05-07T14:38:42;1.94;;;1.94;;
68700;SDS011;55682;51.114;5.882;2023-05-07T14:41:08;1.78;;;1.78;;
68700;SDS011;55682;51.114;5.882;2023-05-07T14:43:34;1.77;;;1.77;;
68700;SDS011;55682;51.114;5.882;2023-05-07T14:45:59;2.14;;;2.14;;
68700;SDS011;55682;51.114;5.882;2023-05-07T14:48:25;2.54;;;2.54;;
68700;SDS011;55682;51.114;5.882;2023-05-07T14:50:50;2.13;;;2.13;;
68700;SDS011;55682;51.114;5.882;2023-05-07T14:53:16;2.20;;;2.20;;
68700;SDS011;55682;51.114;5.882;2023-05-07T14:55:42;2.49;;;2.49;;
68700;SDS011;55682;51.114;5.882;2023-05-07T14:58:07;2.76;;;2.76;;